Fort Richardson, Alaska
Current Conditions -  °F | °C
As of 1:58 AM on Tuesday 21 Oct 2014 (Local Time) from PAED Reporting Station
Few Clouds Few Clouds  
Wind Chill: 25°   Ceiling: Unl
Heat Index: 32°   Visibility: 10mi
Dew Point: 32°   Wind: 7mph
Humidity: 99%   Direction: 70°ENE
Pressure: 29.26"   Gusts: NA
Location:  61.25°N, 149.69°W
Report Text: PAED 210958Z AUTO 07006KT 10SM FEW005 00/00 A2926 RMK AO2 SLP906 T10011002
Loading
Personal Weather Stations






























Interactive Weather Map
Tropical Storm Tracking
New forecast layout! Learn more

10-Day Weather Forecast

Advertisements
Track Severe Weather on mobile